Time;durP1;ratioP1;P1;durP2;ratioP2;P2;SDS_P1;SDS_P2;PMS_P1;PMS_P2;Temp;Humidity;BMP_temperature;BMP_pressure;BME280_temperature;BME280_humidity;BME280_pressure;Samples;Min_cycle;Max_cycle;Signal;HPM_P1;HPM_P2
2021/09/05 00:00:37;;;;;;;10.68;5.70;;;;;;;12.41;100.00;99339.84;1681538;84;21474;-69
2021/09/05 00:03:06;;;;;;;10.35;5.45;;;;;;;12.38;100.00;99339.42;1681715;85;21431;-68
2021/09/05 00:05:35;;;;;;;8.63;4.90;;;;;;;12.37;100.00;99341.64;1681524;85;20908;-68
2021/09/05 00:08:05;;;;;;;9.85;6.03;;;;;;;12.35;100.00;99342.55;1681785;84;21494;-69
2021/09/05 00:10:33;;;;;;;8.10;5.33;;;;;;;12.32;100.00;99345.22;1681483;84;20931;-69
2021/09/05 00:13:03;;;;;;;9.45;5.20;;;;;;;12.27;100.00;99347.44;1681815;84;21445;-69
2021/09/05 00:15:33;;;;;;;7.85;5.08;;;;;;;12.25;100.00;99343.92;1647941;86;21019;-68
2021/09/05 00:18:03;;;;;;;9.10;5.15;;;;;;;12.22;100.00;99346.61;1648169;86;21502;-68
2021/09/05 00:20:35;;;;;;;9.15;4.90;;;;;;;12.19;100.00;99349.28;1681484;85;21512;-69
2021/09/05 00:23:05;;;;;;;8.65;5.28;;;;;;;12.17;100.00;99351.51;1680376;84;21554;-68
2021/09/05 00:25:34;;;;;;;9.10;4.92;;;;;;;12.12;100.00;99344.94;1647894;86;21080;-68
2021/09/05 00:28:03;;;;;;;8.50;4.90;;;;;;;12.10;100.00;99355.98;1647957;86;21649;-68
2021/09/05 00:30:32;;;;;;;7.03;4.87;;;;;;;12.10;100.00;99359.94;1647961;86;21012;-68
2021/09/05 00:33:03;;;;;;;7.87;4.85;;;;;;;12.09;100.00;99358.63;1647924;86;21049;-68
2021/09/05 00:35:35;;;;;;;8.98;5.20;;;;;;;12.07;100.00;99364.38;1681366;85;20928;-68
2021/09/05 00:38:04;;;;;;;10.50;5.22;;;;;;;12.03;100.00;99360.02;1647849;86;21718;-67
2021/09/05 00:40:32;;;;;;;12.05;5.65;;;;;;;12.00;100.00;99366.20;1647951;86;21017;-67
2021/09/05 00:43:00;;;;;;;11.15;4.83;;;;;;;11.97;100.00;99363.59;1647944;86;20984;-67
2021/09/05 00:45:29;;;;;;;10.43;4.97;;;;;;;11.94;100.00;99368.45;1681743;85;21490;-67
2021/09/05 00:47:59;;;;;;;8.23;4.08;;;;;;;11.91;100.00;99364.52;1681338;84;20935;-67
2021/09/05 00:50:28;;;;;;;7.40;4.33;;;;;;;11.89;100.00;99365.41;1681666;85;21432;-67
2021/09/05 00:52:57;;;;;;;11.68;4.60;;;;;;;11.86;100.00;99370.72;1681434;84;21443;-67
2021/09/05 00:55:25;;;;;;;10.60;4.58;;;;;;;11.83;100.00;99370.30;1647866;86;20980;-66
2021/09/05 00:57:58;;;;;;;10.43;4.58;;;;;;;11.80;100.00;99368.09;1647396;85;21456;-67
2021/09/05 01:00:27;;;;;;;7.03;4.35;;;;;;;11.76;100.00;99368.53;1647908;86;21452;-67
2021/09/05 01:02:57;;;;;;;7.80;4.40;;;;;;;11.73;100.00;99371.20;1648011;86;21503;-67
2021/09/05 01:05:26;;;;;;;6.35;4.10;;;;;;;11.71;100.00;99376.06;1648052;86;21444;-67
2021/09/05 01:07:56;;;;;;;7.05;3.58;;;;;;;11.67;100.00;99377.41;1648228;86;21447;-67
2021/09/05 01:10:28;;;;;;;5.92;4.05;;;;;;;11.66;100.00;99376.97;1647945;86;21495;-68
2021/09/05 01:12:58;;;;;;;7.42;4.15;;;;;;;11.67;100.00;99377.41;1648162;86;20921;-67
2021/09/05 01:15:27;;;;;;;6.85;4.17;;;;;;;11.66;100.00;99380.06;1648002;86;21436;-67
2021/09/05 01:17:56;;;;;;;6.67;4.35;;;;;;;11.62;100.00;99389.77;1648081;86;20904;-67
2021/09/05 01:20:43;;;;;;;5.53;3.60;;;;;;;11.60;100.00;99389.34;1648057;86;21004;-63
2021/09/05 01:23:30;;;;;;;7.70;4.17;;;;;;;11.57;100.00;99385.41;1648165;86;21427;-66
2021/09/05 01:26:02;;;;;;;7.42;4.03;;;;;;;11.53;100.00;99384.55;1644995;86;20963;-66
2021/09/05 01:28:43;;;;;;;6.95;3.80;;;;;;;11.51;100.00;99392.92;1604187;87;21023;-66
2021/09/05 01:31:18;;;;;;;5.05;3.52;;;;;;;11.48;100.00;99396.03;1645155;86;20903;-65
2021/09/05 01:33:58;;;;;;;8.58;4.08;;;;;;;11.45;100.00;99394.73;1625869;86;20940;-66
2021/09/05 01:36:46;;;;;;;6.45;3.98;;;;;;;11.42;100.00;99390.34;1577517;89;21563;-65
2021/09/05 01:39:34;;;;;;;7.45;3.60;;;;;;;11.39;100.00;99394.77;1554389;91;21464;-65
2021/09/05 01:42:21;;;;;;;6.85;3.50;;;;;;;11.32;100.00;99398.72;1596774;88;21519;-67
2021/09/05 01:45:10;;;;;;;7.45;3.90;;;;;;;11.28;100.00;99396.11;1570522;90;21060;-65
2021/09/05 01:47:52;;;;;;;5.70;3.70;;;;;;;11.23;100.00;99397.45;1520782;91;21000;-66
2021/09/05 01:50:22;;;;;;;5.35;3.30;;;;;;;11.20;100.00;99397.47;1567360;87;21097;-66
2021/09/05 01:53:01;;;;;;;4.97;3.30;;;;;;;11.22;100.00;99398.78;1627087;87;21515;-66
2021/09/05 01:55:37;;;;;;;5.95;3.70;;;;;;;11.19;100.00;99403.63;1670367;84;20935;-65
2021/09/05 01:58:24;;;;;;;5.53;3.45;;;;;;;11.17;100.00;99403.20;1660391;84;20935;-66
2021/09/05 02:00:55;;;;;;;4.87;3.37;;;;;;;11.12;100.00;99404.55;1661924;84;21491;-66
2021/09/05 02:03:25;;;;;;;5.75;3.12;;;;;;;11.09;100.00;99407.20;1662859;84;21141;-66
2021/09/05 02:05:57;;;;;;;;;;;;;;;11.05;100.00;99404.14;1666513;84;21454;-66
2021/09/05 02:08:33;;;;;;;6.12;3.27;;;;;;;11.03;100.00;99412.50;1622326;87;20450;-66
2021/09/05 02:11:11;;;;;;;5.70;3.15;;;;;;;10.98;100.00;99412.52;1683743;85;20946;-66
2021/09/05 02:13:44;;;;;;;9.98;3.67;;;;;;;10.94;100.00;99410.78;1684732;85;21366;-65
2021/09/05 02:16:33;;;;;;;8.23;3.87;;;;;;;10.91;100.00;99406.83;1648085;85;21956;-65
2021/09/05 02:19:08;;;;;;;5.55;3.12;;;;;;;10.87;100.00;99419.56;1680135;85;21439;-66
2021/09/05 02:21:56;;;;;;;5.90;3.35;;;;;;;10.83;100.00;99411.66;1661752;84;21474;-65
2021/09/05 02:24:27;;;;;;;4.58;3.00;;;;;;;10.80;100.00;99424.87;1661707;84;21471;-66
2021/09/05 02:27:11;;;;;;;6.05;3.40;;;;;;;10.77;100.00;99420.92;1661756;84;21467;-66
2021/09/05 02:29:48;;;;;;;5.63;2.87;;;;;;;10.76;100.00;99421.36;1665358;84;21493;-66
2021/09/05 02:32:34;;;;;;;4.65;3.20;;;;;;;10.74;100.00;99427.08;1664800;84;20903;-65
2021/09/05 02:35:09;;;;;;;8.78;3.55;;;;;;;10.69;100.00;99428.85;1661420;84;20996;-65
2021/09/05 02:37:41;;;;;;;4.75;3.10;;;;;;;10.65;100.00;99434.58;1657526;84;20926;-65
2021/09/05 02:40:14;;;;;;;6.50;3.30;;;;;;;10.63;100.00;99428.87;1657528;84;21522;-65
2021/09/05 02:42:45;;;;;;;5.08;3.22;;;;;;;10.60;100.00;99431.52;1661894;84;21169;-65
2021/09/05 02:45:32;;;;;;;9.60;3.67;;;;;;;10.57;100.00;99438.11;1664905;84;21474;-66
2021/09/05 02:48:02;;;;;;;5.53;2.95;;;;;;;10.54;100.00;99444.27;1629276;84;21466;-66
2021/09/05 02:50:40;;;;;;;4.85;3.12;;;;;;;10.50;100.00;99445.16;1656336;84;21474;-65
2021/09/05 02:53:08;;;;;;;5.05;3.40;;;;;;;10.46;100.00;99439.45;1665269;84;21466;-66
2021/09/05 02:55:47;;;;;;;5.83;3.60;;;;;;;10.45;100.00;99450.00;1645431;84;21123;-65
2021/09/05 02:58:27;;;;;;;5.80;3.02;;;;;;;10.42;100.00;99447.36;1607559;88;20903;-66
2021/09/05 03:01:12;;;;;;;5.87;3.17;;;;;;;10.42;100.00;99453.95;1582942;90;20983;-65
2021/09/05 03:03:53;;;;;;;5.92;3.40;;;;;;;10.39;100.00;99446.89;1616794;85;20972;-65
2021/09/05 03:06:26;;;;;;;5.20;3.45;;;;;;;10.34;100.00;99458.77;1631400;84;20971;-66
2021/09/05 03:09:08;;;;;;;6.83;3.27;;;;;;;10.28;100.00;99452.61;1661393;84;21743;-66
2021/09/05 03:11:44;;;;;;;6.25;3.40;;;;;;;10.26;100.00;99457.01;1661632;86;21458;-66
2021/09/05 03:14:14;;;;;;;5.72;3.20;;;;;;;10.23;100.00;99462.28;1661917;84;20871;-66
2021/09/05 03:16:49;;;;;;;4.55;3.10;;;;;;;10.19;100.00;99461.37;1661655;84;20919;-66
2021/09/05 03:19:20;;;;;;;7.33;3.60;;;;;;;10.16;100.00;99458.73;1608381;84;21593;-66
2021/09/05 03:22:07;;;;;;;5.17;3.05;;;;;;;10.14;100.00;99462.25;1664985;84;21443;-66
2021/09/05 03:24:39;;;;;;;5.83;2.87;;;;;;;10.12;100.00;99468.83;1663296;84;20907;-66
2021/09/05 03:27:27;;;;;;;10.93;3.25;;;;;;;10.14;100.00;99470.16;1607853;88;21493;-65
2021/09/05 03:30:09;;;;;;;6.42;3.08;;;;;;;10.12;100.00;99472.79;1581285;89;21449;-66
2021/09/05 03:32:56;;;;;;;5.53;3.22;;;;;;;10.09;100.00;99474.98;1654337;84;21463;-65
2021/09/05 03:35:32;;;;;;;5.58;3.25;;;;;;;10.07;100.00;99482.45;1661327;84;21470;-66
2021/09/05 03:38:04;;;;;;;5.83;3.33;;;;;;;10.05;100.00;99478.49;1661077;84;21060;-65
2021/09/05 03:40:34;;;;;;;6.72;3.30;;;;;;;10.03;100.00;99473.66;1657514;84;20942;-66
2021/09/05 03:43:04;;;;;;;6.55;3.17;;;;;;;10.01;100.00;99478.05;1660135;84;21454;-67
2021/09/05 03:45:37;;;;;;;8.68;3.72;;;;;;;10.00;100.00;99477.61;1631572;84;20883;-67
2021/09/05 03:48:17;;;;;;;5.35;3.20;;;;;;;9.99;100.00;99480.24;1646201;84;21089;-67
2021/09/05 03:50:50;;;;;;;5.60;3.37;;;;;;;9.98;100.00;99486.39;1664373;84;21002;-67
2021/09/05 03:53:19;;;;;;;5.15;3.40;;;;;;;9.99;100.00;99488.15;1665182;84;21457;-66
2021/09/05 03:55:49;;;;;;;4.60;2.67;;;;;;;9.99;100.00;99493.42;1665040;84;21006;-66
2021/09/05 03:58:21;;;;;;;6.20;3.52;;;;;;;9.98;100.00;99496.49;1644265;84;21430;-66
2021/09/05 04:00:49;;;;;;;5.47;3.27;;;;;;;9.97;100.00;99503.08;1664960;84;21163;-66
2021/09/05 04:03:18;;;;;;;6.50;3.45;;;;;;;9.96;100.00;99510.55;1665132;86;21439;-62
2021/09/05 04:05:47;;;;;;;6.42;3.27;;;;;;;9.94;100.00;99507.91;1664926;84;20955;-63
2021/09/05 04:08:15;;;;;;;5.60;3.37;;;;;;;9.93;100.00;99512.73;1665189;84;20908;-63
2021/09/05 04:10:43;;;;;;;6.78;3.30;;;;;;;9.94;100.00;99510.98;1664951;84;20927;-63
2021/09/05 04:13:11;;;;;;;5.10;3.05;;;;;;;9.93;100.00;99511.82;1665185;84;21458;-63
2021/09/05 04:15:42;;;;;;;7.35;3.37;;;;;;;9.94;100.00;99517.13;1664870;84;20907;-63
2021/09/05 04:18:11;;;;;;;7.53;2.80;;;;;;;9.98;100.00;99520.66;1665143;84;21450;-63
2021/09/05 04:20:39;;;;;;;4.87;3.02;;;;;;;10.00;100.00;99517.14;1664849;84;20900;-63
2021/09/05 04:23:06;;;;;;;3.77;2.62;;;;;;;10.02;100.00;99519.78;1664907;84;20919;-64
2021/09/05 04:25:34;;;;;;;5.50;2.85;;;;;;;10.05;100.00;99522.42;1644707;86;21256;-63
2021/09/05 04:28:01;;;;;;;5.37;3.20;;;;;;;10.07;100.00;99521.55;1664832;86;20939;-64
2021/09/05 04:30:33;;;;;;;5.25;3.10;;;;;;;10.10;100.00;99518.91;1665171;84;20923;-64
2021/09/05 04:33:00;;;;;;;9.55;3.90;;;;;;;10.14;100.00;99524.19;1664894;84;21014;-64
2021/09/05 04:35:27;;;;;;;7.85;3.67;;;;;;;10.15;100.00;99525.52;1665175;84;20990;-64
2021/09/05 04:37:57;;;;;;;5.00;3.37;;;;;;;10.18;100.00;99530.78;1664919;84;20933;-63
2021/09/05 04:40:26;;;;;;;6.15;3.30;;;;;;;10.23;100.00;99538.73;1665076;86;20900;-64
2021/09/05 04:42:54;;;;;;;6.45;3.72;;;;;;;10.28;100.00;99537.87;1664931;84;21456;-63
2021/09/05 04:45:23;;;;;;;6.15;3.35;;;;;;;10.33;100.00;99540.06;1665150;84;20923;-64
2021/09/05 04:47:52;;;;;;;5.67;3.08;;;;;;;10.37;100.00;99543.15;1665002;84;20969;-64
2021/09/05 04:50:21;;;;;;;5.35;3.35;;;;;;;10.40;100.00;99541.86;1665098;84;21785;-63
2021/09/05 04:52:50;;;;;;;5.12;3.25;;;;;;;10.45;100.00;99544.94;1664823;84;20934;-63
2021/09/05 04:55:18;;;;;;;4.72;3.62;;;;;;;10.46;100.00;99543.63;1665137;84;20948;-63
2021/09/05 04:57:47;;;;;;;5.62;3.75;;;;;;;10.49;100.00;99547.58;1663322;84;21443;-63
2021/09/05 05:00:17;;;;;;;4.70;3.02;;;;;;;10.53;100.00;99553.73;1648168;86;20956;-63
2021/09/05 05:02:45;;;;;;;4.40;2.98;;;;;;;10.56;100.00;99559.89;1647967;86;21097;-64
2021/09/05 05:05:12;;;;;;;5.53;3.10;;;;;;;10.60;100.00;99551.54;1647943;86;20964;-63
2021/09/05 05:07:41;;;;;;;4.25;2.72;;;;;;;10.66;100.00;99558.13;1647968;86;21014;-63
2021/09/05 05:10:10;;;;;;;5.15;2.75;;;;;;;10.75;100.00;99559.89;1647962;86;20972;-63
2021/09/05 05:12:39;;;;;;;5.70;2.83;;;;;;;10.80;100.00;99551.09;1648244;86;20960;-63
2021/09/05 05:15:09;;;;;;;4.05;2.70;;;;;;;10.86;100.00;99555.48;1647968;86;21049;-63
2021/09/05 05:17:38;;;;;;;4.00;2.77;;;;;;;10.92;100.00;99553.75;1648129;86;20928;-63
2021/09/05 05:20:11;;;;;;;4.80;2.70;;;;;;;10.99;100.00;99559.91;1648003;86;21447;-63
2021/09/05 05:22:39;;;;;;;5.10;2.92;;;;;;;11.08;100.00;99556.37;1647982;86;20896;-63
2021/09/05 05:25:09;;;;;;;3.37;2.60;;;;;;;11.14;100.00;99557.23;1648217;86;20928;-64
2021/09/05 05:27:37;;;;;;;4.53;2.55;;;;;;;11.19;100.00;99556.78;1647872;86;21112;-61
2021/09/05 05:30:07;;;;;;;4.78;2.80;;;;;;;11.27;100.00;99562.92;1640218;86;21068;-61
2021/09/05 05:32:35;;;;;;;4.58;2.70;;;;;;;11.35;100.00;99557.63;1614492;86;20964;-63
2021/09/05 05:35:02;;;;;;;5.35;2.47;;;;;;;11.43;100.00;99565.55;1612622;87;21534;-65
2021/09/05 05:37:31;;;;;;;3.72;2.30;;;;;;;11.51;100.00;99563.77;1610268;88;20944;-65
2021/09/05 05:40:00;;;;;;;5.03;2.72;;;;;;;11.58;100.00;99561.54;1615737;87;21111;-64
2021/09/05 05:42:28;;;;;;;3.15;2.50;;;;;;;11.68;100.00;99565.91;1593653;88;21443;-64
2021/09/05 05:44:56;;;;;;;3.22;2.25;;;;;;;11.78;100.00;99566.78;1616163;88;20967;-64
2021/09/05 05:47:28;;;;;;;3.22;2.35;;;;;;;11.86;100.00;99568.97;1614843;87;20991;-64
2021/09/05 05:49:57;;;;;;;4.72;2.47;;;;;;;11.97;100.00;99573.77;1620099;87;21394;-63
2021/09/05 05:52:25;;;;;;;3.75;2.50;;;;;;;12.05;100.00;99573.28;1622587;88;21954;-64
2021/09/05 05:54:53;;;;;;;4.03;2.42;;;;;;;12.14;100.00;99576.31;1622713;87;20953;-64
2021/09/05 05:57:20;;;;;;;4.25;2.33;;;;;;;12.24;100.00;99571.41;1622552;88;20928;-64
2021/09/05 05:59:49;;;;;;;5.00;2.58;;;;;;;12.34;100.00;99571.81;1659159;85;20865;-65
2021/09/05 06:02:18;;;;;;;4.42;2.45;;;;;;;12.44;100.00;99573.50;1672025;85;20976;-64
2021/09/05 06:04:45;;;;;;;3.80;2.50;;;;;;;12.54;100.00;99576.97;1672014;85;21790;-64
2021/09/05 06:07:12;;;;;;;3.25;2.42;;;;;;;12.66;100.00;99578.19;1671790;85;20968;-64
2021/09/05 06:09:44;;;;;;;5.30;2.40;;;;;;;12.77;100.00;99578.11;1692306;84;21007;-64
2021/09/05 06:12:12;;;;;;;2.87;2.12;;;;;;;12.89;100.00;99579.36;1672062;85;21016;-62
2021/09/05 06:14:41;;;;;;;3.95;2.30;;;;;;;13.01;100.00;99587.64;1672270;85;21527;-62
2021/09/05 06:17:11;;;;;;;2.92;1.92;;;;;;;13.13;100.00;99588.41;1692112;84;20939;-61
2021/09/05 06:19:39;;;;;;;3.85;1.87;;;;;;;13.25;100.00;99589.23;1672082;85;20896;-63
2021/09/05 06:22:07;;;;;;;3.17;1.98;;;;;;;13.37;100.00;99590.44;1671971;85;20944;-64
2021/09/05 06:24:34;;;;;;;3.67;2.00;;;;;;;13.50;100.00;99588.09;1672153;85;20956;-65
2021/09/05 06:27:03;;;;;;;2.83;1.90;;;;;;;13.64;100.00;99598.09;1672021;85;21503;-63
2021/09/05 06:29:33;;;;;;;4.00;1.82;;;;;;;13.78;100.00;99597.51;1671920;85;21903;-63
2021/09/05 06:32:00;;;;;;;2.55;1.70;;;;;;;13.91;100.00;99597.36;1671952;85;20911;-64
2021/09/05 06:34:28;;;;;;;5.50;2.15;;;;;;;14.05;100.00;99597.61;1692109;84;21443;-64
2021/09/05 06:36:56;;;;;;;3.00;2.08;;;;;;;14.18;100.00;99599.64;1691850;84;20907;-63
2021/09/05 06:39:23;;;;;;;5.00;2.10;;;;;;;14.31;100.00;99603.92;1692024;84;20883;-63
2021/09/05 06:41:51;;;;;;;8.33;2.27;;;;;;;14.45;100.00;99606.41;1691830;84;21446;-62
2021/09/05 06:44:18;;;;;;;3.20;1.87;;;;;;;14.59;100.00;99607.53;1671798;85;20893;-63
2021/09/05 06:46:48;;;;;;;2.42;1.72;;;;;;;14.71;100.00;99607.38;1671835;85;20904;-61
2021/09/05 06:49:16;;;;;;;3.22;1.98;;;;;;;14.84;100.00;99606.27;1691415;84;21521;-63
2021/09/05 06:51:43;;;;;;;5.60;1.92;;;;;;;14.97;100.00;99612.27;1689154;84;20966;-61
2021/09/05 06:54:11;;;;;;;12.88;2.08;;;;;;;15.12;100.00;99615.98;1685256;84;21114;-67
2021/09/05 06:56:42;;;;;;;2.90;1.57;;;;;;;15.26;100.00;99619.31;1691037;84;20946;-70
2021/09/05 06:59:10;;;;;;;3.47;1.60;;;;;;;15.40;100.00;99619.06;1674726;84;20943;-70
2021/09/05 07:01:37;;;;;;;3.77;1.45;;;;;;;15.53;100.00;99619.71;1647915;85;21435;-69
2021/09/05 07:04:05;;;;;;;2.12;1.35;;;;;;;15.66;100.00;99621.30;1644634;85;21501;-71
2021/09/05 07:06:33;;;;;;;5.22;1.40;;;;;;;15.79;100.00;99615.28;1670494;84;21074;-70
2021/09/05 07:09:02;;;;;;;2.33;1.55;;;;;;;15.93;100.00;99623.41;1671727;84;21468;-68
2021/09/05 07:11:30;;;;;;;9.40;1.55;;;;;;;16.07;100.00;99624.45;1668722;84;20915;-68
2021/09/05 07:13:59;;;;;;;8.43;1.20;;;;;;;16.21;100.00;99620.20;1663716;85;20976;-69
2021/09/05 07:16:28;;;;;;;5.53;1.45;;;;;;;16.31;100.00;99621.75;1663641;84;20947;-68
2021/09/05 07:18:56;;;;;;;11.05;1.50;;;;;;;16.44;100.00;99623.69;1667759;85;21060;-68
2021/09/05 07:21:24;;;;;;;20.43;2.45;;;;;;;16.57;100.00;99626.53;1668499;84;20959;-68
2021/09/05 07:23:51;;;;;;;2.15;1.20;;;;;;;16.66;100.00;99628.55;1628594;86;20976;-67
2021/09/05 07:26:19;;;;;;;6.33;1.55;;;;;;;16.77;100.00;99638.96;1668078;84;20954;-68
2021/09/05 07:28:46;;;;;;;8.38;1.15;;;;;;;17.00;99.53;99634.41;1673250;84;21069;-68
2021/09/05 07:31:16;;;;;;;22.17;1.92;;;;;;;17.00;99.53;99634.41;1670310;84;21118;-68
2021/09/05 07:33:45;;;;;;;5.83;1.30;;;;;;;17.12;97.01;99641.26;1670834;84;20959;-68
2021/09/05 07:36:13;;;;;;;8.13;1.10;;;;;;;17.24;95.07;99643.16;1661100;85;21510;-67
2021/09/05 07:38:40;;;;;;;3.08;1.12;;;;;;;17.33;89.81;99643.84;1673122;84;20935;-68
2021/09/05 07:41:08;;;;;;;8.18;1.40;;;;;;;17.41;88.86;99648.05;1643589;85;20899;-63
2021/09/05 07:43:39;;;;;;;3.37;1.05;;;;;;;17.51;85.18;99650.94;1666241;85;21072;-63
2021/09/05 07:46:09;;;;;;;2.00;0.90;;;;;;;17.59;81.32;99652.06;1664676;85;20971;-62
2021/09/05 07:48:43;;;;;;;1.57;0.70;;;;;;;17.65;78.12;99651.02;1659516;85;20975;-63
2021/09/05 07:51:11;;;;;;;2.00;0.80;;;;;;;17.71;75.69;99661.56;1627219;85;21050;-62
2021/09/05 07:53:39;;;;;;;2.67;0.75;;;;;;;17.78;74.63;99650.68;1619990;88;20983;-62
2021/09/05 07:56:07;;;;;;;1.35;0.80;;;;;;;17.87;72.35;99645.55;1621473;87;21543;-62
2021/09/05 07:58:35;;;;;;;3.50;0.90;;;;;;;17.98;70.25;99657.29;1618046;86;21459;-61
2021/09/05 08:01:04;;;;;;;2.50;0.90;;;;;;;18.06;68.62;99653.94;1592299;87;20959;-62
2021/09/05 08:03:37;;;;;;;2.50;1.30;;;;;;;18.15;67.49;99659.02;1692753;84;20999;-63
2021/09/05 08:06:01;;;;;;;1.67;0.80;;;;;;;18.24;66.41;99662.75;1678181;84;21017;-63
2021/09/05 08:08:29;;;;;;;1.77;0.80;;;;;;;18.32;63.20;99663.86;1681461;84;21109;-63
2021/09/05 08:10:57;;;;;;;1.85;1.00;;;;;;;18.39;60.69;99663.64;1663265;85;20912;-63
2021/09/05 08:13:25;;;;;;;2.90;0.70;;;;;;;18.51;59.10;99661.09;1665737;85;21039;-63
2021/09/05 08:15:54;;;;;;;0.70;0.65;;;;;;;18.66;57.45;99658.45;1661917;85;20967;-63
2021/09/05 08:18:28;;;;;;;1.00;0.70;;;;;;;18.75;56.04;99665.72;1653735;85;20952;-63
2021/09/05 08:21:00;;;;;;;2.83;0.85;;;;;;;18.82;54.83;99665.06;1653975;85;21112;-63
2021/09/05 08:23:29;;;;;;;1.07;0.90;;;;;;;18.85;52.21;99657.81;1666668;85;21427;-63
2021/09/05 08:25:57;;;;;;;4.15;0.70;;;;;;;18.93;50.89;99666.09;1674009;85;20948;-63
2021/09/05 08:28:25;;;;;;;1.10;0.60;;;;;;;19.03;50.58;99661.73;1658643;85;21566;-62
2021/09/05 08:30:52;;;;;;;1.45;0.90;;;;;;;19.11;49.19;99661.48;1658919;85;20919;-61
2021/09/05 08:33:20;;;;;;;1.60;1.00;;;;;;;19.15;47.81;99660.45;1658652;85;20916;-61
2021/09/05 08:35:47;;;;;;;3.02;0.90;;;;;;;19.16;46.98;99670.23;1658711;85;20907;-61
2021/09/05 08:38:15;;;;;;;0.98;0.70;;;;;;;19.17;46.52;99668.84;1679311;84;21392;-61
2021/09/05 08:40:47;;;;;;;1.80;0.85;;;;;;;19.20;46.16;99673.22;1674711;85;21515;-61
2021/09/05 08:43:16;;;;;;;49.58;2.98;;;;;;;19.25;46.05;99681.08;1676761;85;20951;-60
2021/09/05 08:45:48;;;;;;;2.45;1.15;;;;;;;19.24;44.77;99684.69;1671933;84;21137;-61
2021/09/05 08:48:19;;;;;;;1.57;0.80;;;;;;;19.11;44.07;99682.41;1673371;84;21453;-62
2021/09/05 08:50:48;;;;;;;1.10;0.90;;;;;;;18.99;43.01;99683.27;1665530;85;20956;-60
2021/09/05 08:53:16;;;;;;;1.15;0.80;;;;;;;18.95;42.53;99677.61;1670687;85;20968;-62
2021/09/05 08:55:46;;;;;;;1.72;0.90;;;;;;;19.00;42.39;99675.20;1669381;85;20932;-61
2021/09/05 08:58:13;;;;;;;2.90;0.80;;;;;;;19.10;42.47;99678.45;1663876;85;21032;-61
2021/09/05 09:00:42;;;;;;;1.75;1.10;;;;;;;19.25;42.43;99677.07;1664203;85;20872;-61
2021/09/05 09:03:10;;;;;;;0.68;0.62;;;;;;;19.36;42.00;99679.80;1666968;85;20983;-63
2021/09/05 09:05:44;;;;;;;5.12;1.07;;;;;;;19.42;41.36;99678.75;1662359;85;20988;-63
2021/09/05 09:08:17;;;;;;;2.52;0.80;;;;;;;19.47;40.94;99676.80;1668088;85;20884;-63
2021/09/05 09:11:03;;;;;;;1.20;0.90;;;;;;;19.55;41.15;99675.23;1636620;86;21458;-64
2021/09/05 09:13:38;;;;;;;1.10;0.93;;;;;;;19.70;41.50;99674.70;1631148;87;20970;-65
2021/09/05 09:16:12;;;;;;;2.15;0.90;;;;;;;19.88;41.48;99666.05;1651687;87;20915;-64
2021/09/05 09:18:42;;;;;;;3.58;1.40;;;;;;;20.09;41.76;99674.64;1620672;87;20931;-62
2021/09/05 09:21:12;;;;;;;6.53;2.02;;;;;;;20.26;41.22;99678.03;1601888;88;20975;-62
2021/09/05 09:23:40;;;;;;;3.77;1.30;;;;;;;20.41;40.88;99672.16;1651925;85;21041;-62
2021/09/05 09:26:15;;;;;;;4.15;0.90;;;;;;;20.59;40.75;99672.39;1649966;85;21484;-62
2021/09/05 09:28:48;;;;;;;2.52;1.00;;;;;;;20.75;40.90;99673.54;1650774;86;20980;-62
2021/09/05 09:31:19;;;;;;;16.87;2.37;;;;;;;20.93;40.89;99667.48;1650405;87;20980;-63
2021/09/05 09:33:58;;;;;;;5.07;0.90;;;;;;;21.09;40.40;99661.02;1650767;85;20936;-62
2021/09/05 09:36:30;;;;;;;1.62;0.93;;;;;;;21.24;40.41;99661.77;1650402;86;21073;-63
2021/09/05 09:39:01;;;;;;;1.35;0.80;;;;;;;21.33;40.16;99666.78;1650547;86;20944;-64
2021/09/05 09:41:37;;;;;;;0.85;0.80;;;;;;;21.29;39.34;99667.84;1650610;86;20940;-63
2021/09/05 09:44:09;;;;;;;2.50;0.80;;;;;;;21.15;38.89;99670.16;1650509;85;21549;-63
2021/09/05 09:46:38;;;;;;;1.05;0.90;;;;;;;21.03;39.22;99672.87;1650337;87;20916;-63
2021/09/05 09:49:09;;;;;;;3.12;1.15;;;;;;;20.99;40.30;99679.77;1650502;85;21161;-63
2021/09/05 09:51:37;;;;;;;2.75;1.15;;;;;;;20.97;40.69;99681.64;1650449;86;21020;-64
2021/09/05 09:54:06;;;;;;;7.37;1.35;;;;;;;20.91;40.69;99684.09;1650481;85;20916;-64
2021/09/05 09:56:34;;;;;;;1.02;0.80;;;;;;;20.77;40.65;99683.73;1650253;85;21039;-63
2021/09/05 09:59:04;;;;;;;2.55;0.93;;;;;;;20.59;40.98;99683.98;1650352;86;21010;-63
2021/09/05 10:01:32;;;;;;;4.53;1.00;;;;;;;20.41;41.00;99688.71;1676711;85;21103;-64
2021/09/05 10:04:01;;;;;;;1.80;1.00;;;;;;;20.27;41.57;99688.28;1681370;85;20838;-63
2021/09/05 10:06:32;;;;;;;2.10;1.10;;;;;;;20.20;42.61;99688.10;1681208;85;21401;-63
2021/09/05 10:09:03;;;;;;;1.98;0.90;;;;;;;20.21;43.33;99686.70;1681328;85;21402;-63
2021/09/05 10:11:30;;;;;;;1.17;1.07;;;;;;;20.26;42.92;99686.07;1680822;85;21638;-64
2021/09/05 10:13:59;;;;;;;5.33;1.00;;;;;;;20.36;43.01;99682.61;1681128;85;21064;-64
2021/09/05 10:16:29;;;;;;;0.95;0.70;;;;;;;20.52;43.38;99682.94;1681107;85;21445;-63
2021/09/05 10:19:01;;;;;;;3.50;1.05;;;;;;;20.71;43.59;99683.51;1681840;85;21421;-63
2021/09/05 10:21:28;;;;;;;;;;;;;;;20.88;42.72;99678.86;1683667;85;21433;-63
2021/09/05 10:23:58;;;;;;;1.45;0.80;;;;;;;20.89;41.43;99687.77;1681642;85;20427;-63
2021/09/05 10:26:26;;;;;;;2.20;0.80;;;;;;;20.79;40.56;99690.38;1681874;85;22822;-63
2021/09/05 10:28:56;;;;;;;2.45;0.95;;;;;;;20.66;40.24;99684.62;1681835;85;20873;-63
2021/09/05 10:31:30;;;;;;;1.45;0.85;;;;;;;20.57;40.25;99689.00;1681644;85;20894;-64
2021/09/05 10:33:58;;;;;;;1.67;0.95;;;;;;;20.50;40.47;99691.50;1660163;85;21394;-62
2021/09/05 10:36:27;;;;;;;2.62;0.80;;;;;;;20.38;40.55;99692.81;1681606;85;20929;-63
2021/09/05 10:39:06;;;;;;;3.20;0.98;;;;;;;20.29;40.45;99695.80;1681416;85;21917;-63
2021/09/05 10:41:49;;;;;;;2.65;0.80;;;;;;;20.22;40.60;99692.94;1681866;85;20928;-63
2021/09/05 10:44:18;;;;;;;3.50;0.88;;;;;;;20.22;41.33;99695.62;1681656;85;20925;-63
2021/09/05 10:46:51;;;;;;;3.37;1.00;;;;;;;20.33;41.62;99692.08;1681684;85;21457;-63
2021/09/05 10:49:39;;;;;;;1.92;0.78;;;;;;;20.47;41.08;99686.27;1681411;85;20925;-65
2021/09/05 10:52:08;;;;;;;5.65;1.12;;;;;;;20.62;40.42;99689.23;1681110;85;20992;-63
2021/09/05 10:54:48;;;;;;;3.33;0.90;;;;;;;20.67;39.99;99689.92;1660338;85;21424;-64
2021/09/05 10:57:38;;;;;;;2.62;0.93;;;;;;;20.64;39.95;99690.05;1661236;85;21420;-63
2021/09/05 11:00:07;;;;;;;4.20;1.05;;;;;;;20.57;39.58;99688.53;1681807;85;20929;-63
2021/09/05 11:03:09;;;;;;;4.85;1.15;;;;;;;20.43;39.74;99696.23;1683907;85;20897;-62
2021/09/05 11:05:37;;;;;;;3.72;0.88;;;;;;;20.33;40.15;99701.45;1684014;85;21103;-63
2021/09/05 11:08:24;;;;;;;1.87;0.80;;;;;;;20.22;40.38;99695.16;1683907;85;20838;-64
2021/09/05 11:10:53;;;;;;;9.23;1.42;;;;;;;20.15;40.35;99693.63;1683965;85;20924;-63
2021/09/05 11:13:46;;;;;;;2.42;0.78;;;;;;;20.11;40.63;99692.87;1683962;85;20893;-68
2021/09/05 11:16:16;;;;;;;9.75;1.25;;;;;;;20.15;41.12;99685.59;1684047;85;21488;-63
2021/09/05 11:18:46;;;;;;;3.27;1.00;;;;;;;20.30;41.57;99690.38;1684126;84;21376;-64
2021/09/05 11:21:25;;;;;;;1.75;0.80;;;;;;;20.43;40.88;99684.17;1683979;85;20862;-64
2021/09/05 11:23:55;;;;;;;13.80;1.17;;;;;;;20.55;40.75;99686.38;1683978;84;21413;-64
2021/09/05 11:26:24;;;;;;;7.37;1.10;;;;;;;20.64;40.62;99687.83;1682895;84;20858;-64
2021/09/05 11:28:53;;;;;;;2.17;0.93;;;;;;;20.67;40.17;99695.28;1684202;84;20944;-64
2021/09/05 11:31:22;;;;;;;5.42;1.30;;;;;;;20.68;39.36;99690.80;1682997;85;21538;-63
2021/09/05 11:33:50;;;;;;;1.50;0.90;;;;;;;20.75;39.57;99694.52;1683280;84;21428;-63
2021/09/05 11:36:20;;;;;;;2.35;1.47;;;;;;;20.90;38.88;99693.08;1683274;85;20950;-63
2021/09/05 11:38:50;;;;;;;1.40;0.80;;;;;;;21.09;38.42;99688.31;1683506;85;20933;-63
2021/09/05 11:41:24;;;;;;;3.40;1.00;;;;;;;21.27;38.37;99689.81;1683940;84;20838;-64
2021/09/05 11:43:52;;;;;;;1.22;0.80;;;;;;;21.48;37.92;99685.86;1684157;85;21093;-63
2021/09/05 11:46:20;;;;;;;2.85;0.88;;;;;;;21.68;37.77;99679.17;1683309;85;20876;-63
2021/09/05 11:49:00;;;;;;;3.30;2.00;;;;;;;21.90;37.46;99682.70;1684278;85;21389;-62